createdAt,value
2023-02-02T00:01:35.606Z,85.23
2023-02-02T00:04:05.088Z,85.75
2023-02-02T00:06:35.549Z,85.76
2023-02-02T00:09:05.228Z,86.30
2023-02-02T00:11:33.893Z,85.67
2023-02-02T00:14:02.593Z,85.92
2023-02-02T00:16:41.860Z,85.83
2023-02-02T00:19:15.042Z,86.81
2023-02-02T00:21:46.074Z,86.73
2023-02-02T00:24:18.223Z,86.15
2023-02-02T00:26:50.049Z,86.18
2023-02-02T00:29:22.677Z,86.12
2023-02-02T00:31:52.578Z,85.32
2023-02-02T00:34:23.723Z,84.68
2023-02-02T00:36:54.016Z,84.83
2023-02-02T00:39:26.127Z,84.96
2023-02-02T00:41:55.376Z,84.86
2023-02-02T00:44:41.868Z,84.52
2023-02-02T00:47:10.586Z,84.45
2023-02-02T00:49:39.470Z,84.48
2023-02-02T00:52:11.280Z,83.96
2023-02-02T00:54:40.091Z,83.98
2023-02-02T00:57:08.856Z,83.80
2023-02-02T00:59:37.594Z,84.10
2023-02-02T01:02:07.018Z,84.25
2023-02-02T01:04:36.323Z,83.67
2023-02-02T01:07:05.512Z,84.21
2023-02-02T01:09:35.702Z,84.40
2023-02-02T01:12:05.667Z,84.00
2023-02-02T01:14:34.435Z,83.96
2023-02-02T01:17:03.157Z,83.73
2023-02-02T01:19:32.218Z,83.82
2023-02-02T01:22:02.757Z,84.05
2023-02-02T01:24:32.283Z,84.46
2023-02-02T01:27:02.646Z,84.56
2023-02-02T01:29:33.237Z,84.31
2023-02-02T01:32:02.029Z,84.19
2023-02-02T01:34:30.767Z,84.84
2023-02-02T01:36:59.500Z,84.62
2023-02-02T01:39:28.493Z,84.38
2023-02-02T01:41:58.156Z,84.30
2023-02-02T01:45:08.492Z,84.56
2023-02-02T01:47:42.848Z,84.50
2023-02-02T01:50:14.342Z,84.41
2023-02-02T01:52:50.001Z,84.30
2023-02-02T01:55:25.347Z,83.88
2023-02-02T01:57:59.003Z,84.44
2023-02-02T02:00:29.444Z,83.64
2023-02-02T02:03:07.523Z,83.60
2023-02-02T02:05:43.279Z,82.96
2023-02-02T02:08:18.831Z,82.79
2023-02-02T02:10:47.558Z,82.50
2023-02-02T02:13:19.397Z,82.41
2023-02-02T02:16:20.415Z,82.38
2023-02-02T02:19:03.808Z,82.64
2023-02-02T02:22:17.162Z,82.34
2023-02-02T02:25:58.406Z,81.80
2023-02-02T02:29:17.712Z,81.33
2023-02-02T02:32:32.409Z,81.04
2023-02-02T02:35:13.388Z,81.19
2023-02-02T02:37:52.051Z,81.00
2023-02-02T02:40:31.575Z,81.28
2023-02-02T02:43:09.020Z,81.15
2023-02-02T02:45:41.193Z,81.63
2023-02-02T02:48:12.813Z,80.60
2023-02-02T02:50:41.705Z,80.69
2023-02-02T02:53:15.995Z,80.24
2023-02-02T02:55:56.655Z,79.95
2023-02-02T02:58:37.410Z,79.74
2023-02-02T03:01:19.754Z,79.98
2023-02-02T03:04:09.892Z,79.85
2023-02-02T03:06:49.507Z,80.32
2023-02-02T03:09:27.162Z,79.64
2023-02-02T03:11:58.379Z,79.25
2023-02-02T03:14:27.341Z,79.02
2023-02-02T03:16:55.998Z,79.31
2023-02-02T03:19:26.204Z,79.21
2023-02-02T03:21:54.970Z,79.04
2023-02-02T03:24:23.765Z,78.94
2023-02-02T03:26:53.016Z,79.13
2023-02-02T03:29:21.776Z,79.22
2023-02-02T03:31:52.038Z,79.38
2023-02-02T03:34:20.815Z,79.26
2023-02-02T03:36:50.906Z,78.86
2023-02-02T03:39:19.613Z,78.62
2023-02-02T03:41:48.273Z,78.80
2023-02-02T03:44:16.999Z,79.05
2023-02-02T03:46:45.758Z,77.82
2023-02-02T03:49:14.479Z,78.70
2023-02-02T03:51:44.367Z,78.14
2023-02-02T03:54:14.953Z,77.70
2023-02-02T03:56:43.730Z,77.70
2023-02-02T03:59:12.443Z,78.76
2023-02-02T04:01:41.194Z,78.01
2023-02-02T04:04:09.945Z,77.52
2023-02-02T04:06:38.746Z,76.92
2023-02-02T04:09:07.534Z,77.10
2023-02-02T04:11:39.361Z,76.81
2023-02-02T04:14:09.047Z,77.36
2023-02-02T04:16:38.221Z,76.34
2023-02-02T04:19:07.084Z,76.07
2023-02-02T04:21:35.888Z,76.12
2023-02-02T04:24:04.780Z,76.65
2023-02-02T04:26:34.600Z,76.39
2023-02-02T04:29:05.906Z,76.38
2023-02-02T04:31:34.926Z,76.86
2023-02-02T04:34:04.502Z,76.83
2023-02-02T04:36:33.279Z,76.56
2023-02-02T04:39:01.939Z,76.15
2023-02-02T04:41:30.636Z,76.51
2023-02-02T04:43:59.515Z,76.04
2023-02-02T04:46:29.748Z,77.05
2023-02-02T04:48:58.895Z,77.11
2023-02-02T04:51:28.807Z,77.18
2023-02-02T04:53:59.292Z,76.41
2023-02-02T04:56:29.985Z,76.63
2023-02-02T04:58:59.895Z,76.44
2023-02-02T05:01:31.003Z,76.34
2023-02-02T05:04:00.105Z,75.70
2023-02-02T05:06:28.860Z,75.96
2023-02-02T05:08:57.584Z,75.57
2023-02-02T05:11:26.640Z,76.05
2023-02-02T05:13:56.605Z,76.46
2023-02-02T05:16:28.805Z,75.95
2023-02-02T05:18:59.736Z,76.20
2023-02-02T05:21:28.865Z,75.69
2023-02-02T05:23:57.583Z,76.10
2023-02-02T05:26:28.804Z,76.56
2023-02-02T05:28:59.072Z,76.96
2023-02-02T05:31:28.375Z,77.09
2023-02-02T05:33:58.720Z,77.21
2023-02-02T05:36:27.835Z,77.02
2023-02-02T05:38:58.400Z,77.16
2023-02-02T05:41:29.266Z,78.18
2023-02-02T05:44:00.937Z,76.41
2023-02-02T05:46:30.105Z,75.70
2023-02-02T05:49:00.698Z,76.59
2023-02-02T05:51:34.769Z,76.38
2023-02-02T05:54:03.985Z,75.94
2023-02-02T05:56:33.397Z,76.80
2023-02-02T05:59:05.083Z,76.54
2023-02-02T06:01:33.795Z,76.56
2023-02-02T06:04:04.023Z,77.38
2023-02-02T06:06:38.028Z,77.21
2023-02-02T06:09:07.284Z,77.96
2023-02-02T06:11:36.521Z,77.70
2023-02-02T06:14:05.278Z,77.92
2023-02-02T06:16:34.108Z,77.87
2023-02-02T06:19:04.612Z,77.45
2023-02-02T06:21:33.489Z,77.11
2023-02-02T06:24:02.340Z,76.64
2023-02-02T06:26:31.283Z,76.78
2023-02-02T06:28:59.996Z,76.42
2023-02-02T06:31:28.813Z,76.56
2023-02-02T06:33:59.728Z,76.73
2023-02-02T06:36:30.101Z,76.89
2023-02-02T06:38:59.613Z,76.75
2023-02-02T06:41:28.317Z,77.66
2023-02-02T06:43:57.383Z,76.87
2023-02-02T06:46:26.161Z,77.10
2023-02-02T06:48:54.980Z,77.37
2023-02-02T06:51:23.758Z,77.07
2023-02-02T06:53:54.054Z,76.86
2023-02-02T06:56:22.982Z,77.94
2023-02-02T06:58:51.778Z,78.00
2023-02-02T07:01:20.926Z,77.47
2023-02-02T07:03:51.258Z,77.52
2023-02-02T07:06:22.795Z,77.58
2023-02-02T07:09:02.191Z,77.68
2023-02-02T07:11:36.749Z,77.20
2023-02-02T07:14:08.482Z,77.57
2023-02-02T07:16:37.639Z,77.51
2023-02-02T07:19:06.355Z,77.34
2023-02-02T07:21:36.669Z,77.29
2023-02-02T07:24:08.737Z,77.33
2023-02-02T07:26:38.324Z,77.55
2023-02-02T07:29:07.217Z,77.55
2023-02-02T07:31:36.882Z,78.07
2023-02-02T07:34:05.877Z,78.96
2023-02-02T07:36:35.164Z,78.06
2023-02-02T07:39:07.802Z,77.55
2023-02-02T07:41:38.329Z,77.84
2023-02-02T07:44:17.760Z,78.13
2023-02-02T07:46:48.391Z,78.39
2023-02-02T07:49:20.403Z,78.00
2023-02-02T07:51:49.446Z,78.83
2023-02-02T07:54:19.591Z,78.22
2023-02-02T07:56:48.453Z,78.59
2023-02-02T07:59:17.157Z,78.13
2023-02-02T08:01:45.868Z,78.08
2023-02-02T08:04:15.679Z,77.42
2023-02-02T08:06:44.473Z,78.12
2023-02-02T08:09:13.154Z,77.67
2023-02-02T08:11:43.313Z,77.37
2023-02-02T08:14:15.185Z,77.64
2023-02-02T08:16:43.846Z,77.61
2023-02-02T08:19:12.882Z,78.14
2023-02-02T08:21:41.633Z,78.23
2023-02-02T08:24:10.432Z,77.37
2023-02-02T08:26:39.133Z,77.91
2023-02-02T08:29:11.421Z,77.56
2023-02-02T08:31:42.893Z,77.68
2023-02-02T08:34:12.396Z,77.29
2023-02-02T08:36:41.316Z,77.20
2023-02-02T08:39:14.410Z,76.48
2023-02-02T08:41:43.129Z,76.21
2023-02-02T08:44:17.229Z,76.73
2023-02-02T08:46:47.234Z,77.59
2023-02-02T08:49:16.265Z,77.27
2023-02-02T08:51:44.978Z,77.11
2023-02-02T08:54:13.759Z,78.05
2023-02-02T08:56:42.482Z,78.98
2023-02-02T08:59:12.596Z,78.75
2023-02-02T09:01:41.320Z,79.10
2023-02-02T09:04:17.284Z,79.62
2023-02-02T09:06:46.533Z,79.49
2023-02-02T09:09:17.751Z,78.97
2023-02-02T09:11:46.658Z,79.28
2023-02-02T09:14:16.868Z,79.45
2023-02-02T09:16:45.634Z,79.03
2023-02-02T09:19:14.592Z,79.33
2023-02-02T09:21:43.286Z,79.16
2023-02-02T09:24:14.535Z,79.38
2023-02-02T09:26:45.821Z,79.55
2023-02-02T09:29:18.989Z,79.96
2023-02-02T09:31:48.079Z,80.30
2023-02-02T09:34:17.655Z,80.42
2023-02-02T09:36:47.546Z,79.44
2023-02-02T09:39:17.869Z,79.71
2023-02-02T09:42:18.665Z,79.88
2023-02-02T09:45:09.314Z,78.72
2023-02-02T09:47:55.516Z,80.24
2023-02-02T09:50:42.328Z,79.70
2023-02-02T09:53:26.909Z,79.19
2023-02-02T09:56:01.707Z,79.63
2023-02-02T09:58:37.199Z,79.56
2023-02-02T10:01:14.378Z,80.83
2023-02-02T10:03:51.322Z,80.62
2023-02-02T10:06:35.656Z,81.57
2023-02-02T10:09:22.731Z,82.31
2023-02-02T10:12:01.842Z,83.49
2023-02-02T10:14:38.230Z,84.54
2023-02-02T10:17:33.909Z,84.88
2023-02-02T10:20:16.988Z,85.29
2023-02-02T10:22:49.376Z,85.48
2023-02-02T10:25:19.337Z,86.42
2023-02-02T10:28:02.420Z,86.79
2023-02-02T10:30:47.562Z,86.35
2023-02-02T10:33:32.697Z,86.78
2023-02-02T10:36:17.741Z,87.08
2023-02-02T10:39:00.852Z,85.61
2023-02-02T10:41:42.820Z,84.96
2023-02-02T10:44:29.442Z,84.68
2023-02-02T10:47:03.382Z,84.58
2023-02-02T10:49:38.161Z,85.21
2023-02-02T10:52:18.774Z,84.91
2023-02-02T10:55:04.139Z,84.83
2023-02-02T10:58:01.462Z,85.37
2023-02-02T11:00:42.141Z,86.66
2023-02-02T11:03:15.354Z,87.43
2023-02-02T11:06:03.336Z,87.68
2023-02-02T11:08:36.394Z,88.76
2023-02-02T11:11:18.998Z,88.51
2023-02-02T11:13:58.162Z,88.24
2023-02-02T11:16:42.234Z,88.53
2023-02-02T11:19:43.978Z,88.92
2023-02-02T11:22:29.876Z,89.67
2023-02-02T11:25:02.760Z,90.52
2023-02-02T11:27:39.621Z,92.37
2023-02-02T11:30:29.314Z,91.53
2023-02-02T11:32:58.043Z,92.05
2023-02-02T11:35:30.817Z,93.24
2023-02-02T11:38:10.936Z,94.24
2023-02-02T11:40:43.674Z,94.20
2023-02-02T11:43:20.967Z,94.68
2023-02-02T11:46:02.302Z,94.18
2023-02-02T11:48:36.171Z,94.70
2023-02-02T11:51:09.081Z,95.61
2023-02-02T11:53:48.298Z,96.79
2023-02-02T11:56:25.147Z,96.46
2023-02-02T11:58:56.643Z,97.03
2023-02-02T12:01:29.032Z,97.84
2023-02-02T12:04:00.366Z,96.54
2023-02-02T12:06:37.629Z,97.40
2023-02-02T12:09:16.157Z,98.22
2023-02-02T12:12:03.317Z,99.18
2023-02-02T12:14:47.904Z,100.00
2023-02-02T12:17:39.014Z,99.53
2023-02-02T12:20:31.687Z,98.93
2023-02-02T12:23:23.964Z,99.23
2023-02-02T12:26:25.176Z,99.94
2023-02-02T12:29:35.520Z,98.38
2023-02-02T12:32:28.151Z,98.25
2023-02-02T12:35:22.861Z,98.36
2023-02-02T12:38:07.783Z,97.63
2023-02-02T12:41:07.167Z,97.56
2023-02-02T12:49:07.402Z,95.86
2023-02-02T12:51:53.707Z,95.29
2023-02-02T12:54:55.688Z,95.73
2023-02-02T12:57:40.481Z,95.93
2023-02-02T13:00:34.039Z,96.02
2023-02-02T13:03:22.739Z,94.88
2023-02-02T13:06:16.992Z,96.22
2023-02-02T13:08:58.060Z,96.67
2023-02-02T13:11:40.017Z,96.73
2023-02-02T13:14:16.319Z,96.02
2023-02-02T13:16:51.547Z,96.00
2023-02-02T13:19:32.896Z,94.46
2023-02-02T13:22:08.240Z,94.69
2023-02-02T13:24:45.880Z,93.25
2023-02-02T13:27:20.902Z,94.20
2023-02-02T13:29:56.978Z,94.72
2023-02-02T13:32:33.177Z,94.55
2023-02-02T13:35:15.763Z,94.78
2023-02-02T13:37:53.855Z,93.09
2023-02-02T13:40:32.243Z,93.07
2023-02-02T13:43:17.463Z,92.53
2023-02-02T13:46:05.099Z,92.22
2023-02-02T13:48:46.136Z,92.98
2023-02-02T13:51:51.183Z,92.95
2023-02-02T13:55:25.548Z,93.92
2023-02-02T13:58:39.070Z,93.77
2023-02-02T14:01:13.525Z,94.10
2023-02-02T14:03:45.183Z,94.25
2023-02-02T14:06:20.270Z,94.16
2023-02-02T14:08:55.459Z,94.55
2023-02-02T14:11:31.713Z,95.30
2023-02-02T14:14:27.605Z,95.89
2023-02-02T14:16:56.944Z,96.10
2023-02-02T14:19:54.759Z,95.04
2023-02-02T14:22:47.854Z,95.54
2023-02-02T14:25:53.487Z,94.55
2023-02-02T14:28:51.972Z,93.56
2023-02-02T14:31:54.664Z,93.71
2023-02-02T14:34:35.833Z,93.48
2023-02-02T14:37:38.613Z,92.99
2023-02-02T14:40:49.688Z,92.62
2023-02-02T14:43:46.310Z,92.02
2023-02-02T14:46:35.769Z,92.54
2023-02-02T14:49:27.056Z,92.27
2023-02-02T14:52:03.114Z,92.21
2023-02-02T14:54:41.421Z,91.79
2023-02-02T14:57:28.639Z,92.03
2023-02-02T15:00:01.313Z,91.68
2023-02-02T15:02:38.960Z,91.55
2023-02-02T15:05:41.899Z,91.68
2023-02-02T15:08:25.284Z,91.45
2023-02-02T15:11:27.534Z,90.97
2023-02-02T15:14:16.071Z,90.84
2023-02-02T15:16:47.628Z,90.86
2023-02-02T15:19:33.169Z,90.80
2023-02-02T15:22:23.737Z,90.80
2023-02-02T15:24:54.967Z,90.70
2023-02-02T15:27:25.970Z,90.54
2023-02-02T15:30:02.779Z,91.25
2023-02-02T15:32:34.202Z,91.51
2023-02-02T15:35:09.166Z,91.55
2023-02-02T15:37:45.267Z,91.62
2023-02-02T15:40:23.032Z,91.16
2023-02-02T15:42:57.496Z,91.02
2023-02-02T15:45:44.932Z,90.75
2023-02-02T15:48:29.995Z,90.65
2023-02-02T15:51:06.968Z,90.73
2023-02-02T15:53:52.081Z,90.12
2023-02-02T15:56:30.598Z,90.39
2023-02-02T15:59:01.879Z,90.55
2023-02-02T16:01:46.309Z,90.84
2023-02-02T16:04:23.791Z,90.62
2023-02-02T16:06:55.757Z,91.11
2023-02-02T16:09:29.874Z,90.69
2023-02-02T16:58:04.909Z,90.24
2023-02-02T17:06:56.090Z,89.79
2023-02-02T17:09:50.350Z,89.76
2023-02-02T17:15:35.625Z,90.69
2023-02-02T17:18:07.098Z,90.41
2023-02-02T17:20:36.108Z,90.53
2023-02-02T17:23:19.394Z,90.15
2023-02-02T17:25:49.132Z,89.86
2023-02-02T17:28:22.670Z,90.10
2023-02-02T17:31:01.602Z,90.41
2023-02-02T17:33:36.583Z,90.79
2023-02-02T17:36:07.256Z,90.76
2023-02-02T17:38:39.573Z,90.28
2023-02-02T17:41:08.725Z,90.05
2023-02-02T17:43:39.811Z,90.19
2023-02-02T17:46:14.448Z,90.05
2023-02-02T17:48:47.688Z,90.38
2023-02-02T17:51:18.948Z,89.75
2023-02-02T17:53:49.022Z,89.56
2023-02-02T17:56:21.323Z,89.69
2023-02-02T17:58:53.693Z,90.02
2023-02-02T18:01:23.427Z,90.34
2023-02-02T18:03:55.618Z,90.86
2023-02-02T18:06:24.598Z,90.48
2023-02-02T18:08:54.366Z,90.71
2023-02-02T18:11:25.271Z,90.68
2023-02-02T18:13:57.646Z,90.27
2023-02-02T18:16:35.501Z,90.00
2023-02-02T18:19:06.556Z,89.71
2023-02-02T18:21:37.138Z,89.37
2023-02-02T18:24:07.105Z,88.89
2023-02-02T18:26:36.536Z,88.59
2023-02-02T18:29:06.425Z,88.92
2023-02-02T18:31:41.981Z,90.07
2023-02-02T18:34:14.547Z,89.94
2023-02-02T18:36:45.058Z,89.78
2023-02-02T18:39:17.502Z,90.06
2023-02-02T18:41:47.398Z,90.89
2023-02-02T18:44:17.388Z,92.35
2023-02-02T18:46:46.497Z,91.52
2023-02-02T18:49:16.986Z,91.89
2023-02-02T18:51:47.340Z,93.94
2023-02-02T18:54:16.209Z,92.97
2023-02-02T18:56:49.853Z,93.43
2023-02-02T18:59:21.831Z,92.83
2023-02-02T19:01:51.683Z,93.17
2023-02-02T19:04:22.520Z,92.97
2023-02-02T19:07:08.806Z,92.74
2023-02-02T19:09:38.033Z,93.42
2023-02-02T19:12:15.138Z,93.71
2023-02-02T19:14:48.947Z,93.63
2023-02-02T19:17:25.399Z,93.82
2023-02-02T19:20:04.046Z,93.66
2023-02-02T19:22:34.168Z,92.90
2023-02-02T19:25:15.454Z,93.38
2023-02-02T19:27:44.450Z,93.23
2023-02-02T19:30:22.952Z,93.13
2023-02-02T19:32:52.557Z,93.75
2023-02-02T19:35:26.355Z,93.42
2023-02-02T19:38:03.984Z,93.68
2023-02-02T19:40:32.753Z,93.51
2023-02-02T19:43:24.770Z,93.95
2023-02-02T19:45:54.452Z,93.15
2023-02-02T19:48:29.433Z,93.18
2023-02-02T19:51:01.016Z,93.58
2023-02-02T19:53:39.436Z,93.36
2023-02-02T19:56:26.079Z,93.55
2023-02-02T19:58:56.120Z,93.32
2023-02-02T20:01:31.255Z,92.77
2023-02-02T20:04:00.273Z,93.08
2023-02-02T20:06:35.011Z,93.19
2023-02-02T20:09:14.467Z,93.40
2023-02-02T20:11:46.216Z,93.82
2023-02-02T20:14:32.344Z,93.34
2023-02-02T20:17:07.732Z,93.76
2023-02-02T20:19:42.740Z,93.83
2023-02-02T20:22:26.850Z,94.21
2023-02-02T20:25:02.622Z,94.37
2023-02-02T20:27:35.637Z,94.67
2023-02-02T20:30:24.228Z,95.11
2023-02-02T20:32:59.245Z,94.72
2023-02-02T20:35:37.713Z,94.72
2023-02-02T20:38:23.115Z,94.82
2023-02-02T20:40:53.335Z,94.58
2023-02-02T20:43:22.498Z,94.89
2023-02-02T20:45:52.405Z,94.65
2023-02-02T20:48:21.450Z,94.44
2023-02-02T20:50:50.255Z,94.35
2023-02-02T20:53:20.483Z,94.14
2023-02-02T20:55:49.273Z,94.18
2023-02-02T20:58:20.638Z,94.19
2023-02-02T21:00:49.350Z,93.77
2023-02-02T21:03:18.558Z,93.60
2023-02-02T21:05:47.446Z,93.83
2023-02-02T21:08:16.119Z,93.81
2023-02-02T21:10:46.243Z,93.53
2023-02-02T21:13:15.048Z,93.90
2023-02-02T21:15:43.729Z,93.42
2023-02-02T21:18:12.458Z,93.08
2023-02-02T21:20:41.108Z,93.04
2023-02-02T21:23:10.259Z,92.70
2023-02-02T21:25:39.003Z,92.85
2023-02-02T21:28:09.054Z,92.60
2023-02-02T21:30:38.047Z,92.49
2023-02-02T21:33:06.930Z,92.43
2023-02-02T21:35:35.968Z,92.15
2023-02-02T21:38:14.612Z,92.31
2023-02-02T21:40:43.709Z,92.31
2023-02-02T21:43:18.718Z,91.97
2023-02-02T21:45:51.961Z,91.37
2023-02-02T21:48:33.961Z,91.54
2023-02-02T21:51:24.501Z,91.47
2023-02-02T21:53:53.767Z,91.38
2023-02-02T21:56:33.757Z,91.37
2023-02-02T21:59:14.239Z,91.20
2023-02-02T22:01:43.705Z,91.04
2023-02-02T22:04:25.265Z,90.35
2023-02-02T22:06:58.077Z,90.36
2023-02-02T22:09:30.668Z,90.52
2023-02-02T22:12:02.084Z,90.35
2023-02-02T22:14:40.613Z,90.40
2023-02-02T22:17:23.220Z,90.09
2023-02-02T22:19:55.880Z,90.15
2023-02-02T22:22:27.977Z,90.30
2023-02-02T22:25:01.544Z,89.95
2023-02-02T22:27:43.546Z,89.87
2023-02-02T22:30:29.045Z,89.84
2023-02-02T22:32:57.964Z,90.29
2023-02-02T22:35:26.989Z,89.98
2023-02-02T22:37:55.720Z,89.75
2023-02-02T22:40:25.255Z,89.42
2023-02-02T22:42:57.117Z,89.70
2023-02-02T22:45:27.626Z,89.32
2023-02-02T22:47:56.685Z,90.03
2023-02-02T22:50:29.106Z,90.34
2023-02-02T22:52:58.257Z,90.69
2023-02-02T22:55:26.966Z,90.62
2023-02-02T22:57:55.720Z,90.30
2023-02-02T23:00:28.586Z,90.39
2023-02-02T23:02:58.347Z,90.60
2023-02-02T23:05:28.875Z,90.51
2023-02-02T23:07:57.974Z,90.73
2023-02-02T23:10:29.675Z,90.49
2023-02-02T23:12:59.511Z,90.62
2023-02-02T23:15:30.981Z,90.50
2023-02-02T23:17:59.975Z,90.39
2023-02-02T23:20:29.609Z,90.81
2023-02-02T23:22:58.374Z,91.43
2023-02-02T23:25:27.073Z,91.71
2023-02-02T23:27:55.874Z,91.10
2023-02-02T23:30:25.249Z,90.73
2023-02-02T23:32:55.608Z,91.47
2023-02-02T23:35:24.375Z,92.03
2023-02-02T23:37:53.150Z,91.42
2023-02-02T23:40:22.005Z,91.17
2023-02-02T23:42:50.702Z,90.98
2023-02-02T23:45:19.573Z,90.94
2023-02-02T23:47:48.354Z,90.94
2023-02-02T23:50:18.734Z,90.90
2023-02-02T23:52:47.452Z,91.33
2023-02-02T23:55:17.084Z,92.07
2023-02-02T23:57:45.874Z,91.62
